Roper, North Carolina
Current Conditions -  °F | °C
As of 1:15 AM on Saturday 20 Dec 2014 (Local Time) from KEDE Reporting Station
NA  
Wind Chill: 34°   Ceiling: NA
Heat Index: 34°   Visibility: 10mi
Dew Point: 31°   Wind: 3mph
Humidity: 88%   Direction: 30°NNE
Pressure: 30.24"   Gusts: NA
Location:  35.88°N, 76.62°W
Report Text: KEDE 200615Z AUTO 03003KT 10SM 01/M01 A3024 RMK AO2 T00101008
Loading
Personal Weather Stations






























Interactive Weather Map New forecast layout! Learn more

10-Day Weather Forecast

Advertisements
Track Severe Weather on mobile